DLH6ED LOWW-EDDM
Flight info
| Callsign | DLH6ED |
|---|---|
| Flight time | 0h 38m |
| Altitude | 28000 |
| Route | SOVIL DCT SITNI DCT BAGSI DCT MATIG DCT AMADI Q113 NAPSA NAPSA1B |
| Aircraft | A321/M-SDE3FGHIRWY/LB1 |
Departure
| Time | 2026-05-06 17:56 |
|---|---|
| Airport | Vienna International Airport (LOWW) |
Arrival
| Time | 2026-05-06 18:35 |
|---|---|
| Airport | Munich Airport (EDDM) |
| Time | Latitude | Longitude | Altitude | Speed | Heading |
|---|---|---|---|---|---|
| 2026-05-06 17:22 | 48.11812 | 16.57041 | 609 ft | 0 kts | 205° |
| 2026-05-06 17:48 | 48.11822 | 16.57048 | 609 ft | 2 kts | 207° |
| 2026-05-06 17:48 | 48.11836 | 16.57058 | 609 ft | 2 kts | 205° |
| 2026-05-06 17:49 | 48.11849 | 16.57068 | 609 ft | 2 kts | 206° |
| 2026-05-06 17:49 | 48.11863 | 16.57077 | 609 ft | 2 kts | 205° |
| 2026-05-06 17:49 | 48.11876 | 16.57087 | 609 ft | 2 kts | 205° |
| 2026-05-06 17:49 | 48.11890 | 16.57096 | 609 ft | 2 kts | 205° |
| 2026-05-06 17:50 | 48.11903 | 16.57105 | 609 ft | 1 kts | 205° |
| 2026-05-06 17:50 | 48.11909 | 16.57110 | 609 ft | 1 kts | 174° |
| 2026-05-06 17:50 | 48.11916 | 16.57104 | 609 ft | 0 kts | 121° |
| 2026-05-06 17:50 | 48.11919 | 16.57095 | 609 ft | 1 kts | 116° |
| 2026-05-06 17:51 | 48.11919 | 16.57094 | 609 ft | 0 kts | 116° |
| 2026-05-06 17:52 | 48.11919 | 16.57095 | 609 ft | 0 kts | 116° |
| 2026-05-06 17:52 | 48.11917 | 16.57101 | 609 ft | 0 kts | 117° |
| 2026-05-06 17:53 | 48.11914 | 16.57110 | 609 ft | 1 kts | 120° |
| 2026-05-06 17:53 | 48.11907 | 16.57127 | 609 ft | 3 kts | 121° |
| 2026-05-06 17:53 | 48.11888 | 16.57168 | 609 ft | 6 kts | 134° |
| 2026-05-06 17:53 | 48.11848 | 16.57249 | 609 ft | 11 kts | 102° |
| 2026-05-06 17:54 | 48.11881 | 16.57317 | 609 ft | 5 kts | 338° |
| 2026-05-06 17:54 | 48.11927 | 16.57290 | 609 ft | 8 kts | 342° |
| 2026-05-06 17:54 | 48.11988 | 16.57331 | 609 ft | 16 kts | 58° |
| 2026-05-06 17:54 | 48.12004 | 16.57545 | 609 ft | 22 kts | 103° |
| 2026-05-06 17:55 | 48.11964 | 16.57778 | 609 ft | 19 kts | 109° |
| 2026-05-06 17:55 | 48.11917 | 16.57843 | 609 ft | 0 kts | 163° |
| 2026-05-06 17:55 | 48.11728 | 16.57923 | 609 ft | 65 kts | 165° |
| 2026-05-06 17:55 | 48.11078 | 16.58197 | 609 ft | 128 kts | 165° |
| 2026-05-06 17:56 | 48.10083 | 16.58615 | 883 ft | 157 kts | 165° |
| 2026-05-06 17:56 | 48.09058 | 16.59091 | 1621 ft | 156 kts | 165° |
| 2026-05-06 17:56 | 48.08036 | 16.59561 | 2390 ft | 155 kts | 167° |
| 2026-05-06 17:56 | 48.07015 | 16.59989 | 3067 ft | 156 kts | 172° |
| 2026-05-06 17:57 | 48.05916 | 16.59916 | 3470 ft | 169 kts | 201° |
| 2026-05-06 17:57 | 48.04940 | 16.58772 | 3805 ft | 195 kts | 229° |
| 2026-05-06 17:57 | 48.04113 | 16.57087 | 4287 ft | 213 kts | 231° |
| 2026-05-06 17:57 | 48.03192 | 16.55222 | 4783 ft | 230 kts | 231° |
| 2026-05-06 17:58 | 48.02226 | 16.53223 | 5308 ft | 247 kts | 237° |
| 2026-05-06 17:58 | 48.01756 | 16.50708 | 6012 ft | 263 kts | 266° |
| 2026-05-06 17:58 | 48.01874 | 16.47992 | 6879 ft | 265 kts | 270° |
| 2026-05-06 17:58 | 48.02012 | 16.45250 | 7674 ft | 268 kts | 269° |
| 2026-05-06 17:59 | 48.02131 | 16.42504 | 8423 ft | 271 kts | 269° |
| 2026-05-06 17:59 | 48.02237 | 16.39678 | 9187 ft | 274 kts | 269° |
| 2026-05-06 17:59 | 48.02332 | 16.36834 | 9947 ft | 277 kts | 269° |
| 2026-05-06 17:59 | 48.02422 | 16.33925 | 10502 ft | 287 kts | 268° |
| 2026-05-06 18:00 | 48.02508 | 16.30937 | 10820 ft | 304 kts | 268° |
| 2026-05-06 18:00 | 48.02597 | 16.27714 | 11123 ft | 321 kts | 269° |
| 2026-05-06 18:00 | 48.02690 | 16.24314 | 11408 ft | 337 kts | 269° |
| 2026-05-06 18:00 | 48.02784 | 16.20697 | 11682 ft | 353 kts | 269° |
| 2026-05-06 18:01 | 48.02878 | 16.17001 | 11986 ft | 366 kts | 270° |
| 2026-05-06 18:01 | 48.02978 | 16.13178 | 12540 ft | 370 kts | 270° |
| 2026-05-06 18:01 | 48.03080 | 16.09308 | 13151 ft | 373 kts | 269° |
| 2026-05-06 18:01 | 48.03179 | 16.05462 | 13710 ft | 377 kts | 269° |
| 2026-05-06 18:02 | 48.03276 | 16.01539 | 14263 ft | 380 kts | 269° |
| 2026-05-06 18:02 | 48.03372 | 15.97578 | 14824 ft | 383 kts | 269° |
| 2026-05-06 18:02 | 48.03468 | 15.93556 | 15383 ft | 385 kts | 269° |
| 2026-05-06 18:02 | 48.03562 | 15.89572 | 15916 ft | 388 kts | 269° |
| 2026-05-06 18:03 | 48.03654 | 15.85577 | 16436 ft | 391 kts | 269° |
| 2026-05-06 18:03 | 48.03748 | 15.81467 | 16954 ft | 393 kts | 269° |
| 2026-05-06 18:03 | 48.03839 | 15.77405 | 17445 ft | 395 kts | 269° |
| 2026-05-06 18:03 | 48.03931 | 15.73276 | 17923 ft | 398 kts | 269° |
| 2026-05-06 18:04 | 48.04023 | 15.69172 | 18338 ft | 402 kts | 269° |
| 2026-05-06 18:04 | 48.04111 | 15.64980 | 18751 ft | 405 kts | 269° |
| 2026-05-06 18:04 | 48.04198 | 15.60763 | 19188 ft | 407 kts | 269° |
| 2026-05-06 18:04 | 48.04283 | 15.56569 | 19622 ft | 410 kts | 269° |
| 2026-05-06 18:05 | 48.04368 | 15.52316 | 20043 ft | 412 kts | 269° |
| 2026-05-06 18:05 | 48.04453 | 15.48003 | 20459 ft | 414 kts | 269° |
| 2026-05-06 18:05 | 48.04536 | 15.43696 | 20864 ft | 416 kts | 269° |
| 2026-05-06 18:05 | 48.04617 | 15.39408 | 21263 ft | 418 kts | 269° |
| 2026-05-06 18:06 | 48.04699 | 15.35029 | 21694 ft | 419 kts | 269° |
| 2026-05-06 18:06 | 48.04775 | 15.30620 | 22122 ft | 420 kts | 268° |
| 2026-05-06 18:06 | 48.04846 | 15.26287 | 22494 ft | 422 kts | 268° |
| 2026-05-06 18:06 | 48.04917 | 15.21845 | 22869 ft | 424 kts | 268° |
| 2026-05-06 18:07 | 48.04986 | 15.17460 | 23291 ft | 424 kts | 268° |
| 2026-05-06 18:07 | 48.05050 | 15.13096 | 23658 ft | 425 kts | 268° |
| 2026-05-06 18:07 | 48.05113 | 15.08651 | 23995 ft | 427 kts | 268° |
| 2026-05-06 18:07 | 48.05174 | 15.04218 | 24333 ft | 428 kts | 268° |
| 2026-05-06 18:08 | 48.05234 | 14.99743 | 24662 ft | 430 kts | 268° |
| 2026-05-06 18:08 | 48.05291 | 14.95313 | 24979 ft | 431 kts | 268° |
| 2026-05-06 18:08 | 48.05347 | 14.90842 | 25290 ft | 433 kts | 268° |
| 2026-05-06 18:08 | 48.05402 | 14.86288 | 25598 ft | 434 kts | 268° |
| 2026-05-06 18:09 | 48.05456 | 14.81775 | 25894 ft | 436 kts | 267° |
| 2026-05-06 18:09 | 48.05500 | 14.77301 | 26178 ft | 437 kts | 267° |
| 2026-05-06 18:09 | 48.05540 | 14.72746 | 26463 ft | 438 kts | 267° |
| 2026-05-06 18:09 | 48.05577 | 14.68189 | 26778 ft | 438 kts | 267° |
| 2026-05-06 18:10 | 48.05610 | 14.63672 | 27057 ft | 438 kts | 267° |
| 2026-05-06 18:10 | 48.05641 | 14.59139 | 27322 ft | 439 kts | 267° |
| 2026-05-06 18:10 | 48.05670 | 14.54598 | 27554 ft | 440 kts | 267° |
| 2026-05-06 18:10 | 48.05697 | 14.49992 | 27716 ft | 441 kts | 267° |
| 2026-05-06 18:11 | 48.05722 | 14.45412 | 27724 ft | 441 kts | 267° |
| 2026-05-06 18:11 | 48.05745 | 14.40841 | 27727 ft | 441 kts | 267° |
| 2026-05-06 18:11 | 48.05766 | 14.36309 | 27728 ft | 441 kts | 267° |
| 2026-05-06 18:11 | 48.05786 | 14.31703 | 27729 ft | 440 kts | 266° |
| 2026-05-06 18:12 | 48.05806 | 14.27166 | 27729 ft | 440 kts | 266° |
| 2026-05-06 18:12 | 48.05828 | 14.22578 | 27683 ft | 440 kts | 266° |
| 2026-05-06 18:12 | 48.05851 | 14.18049 | 27363 ft | 430 kts | 266° |
| 2026-05-06 18:12 | 48.05870 | 14.13673 | 27102 ft | 421 kts | 266° |
| 2026-05-06 18:13 | 48.05882 | 14.09270 | 26849 ft | 420 kts | 266° |
| 2026-05-06 18:13 | 48.05891 | 14.04932 | 26520 ft | 419 kts | 266° |
| 2026-05-06 18:13 | 48.05898 | 14.00618 | 26012 ft | 417 kts | 266° |
| 2026-05-06 18:13 | 48.05904 | 13.96277 | 25506 ft | 415 kts | 266° |
| 2026-05-06 18:14 | 48.05908 | 13.92009 | 25007 ft | 413 kts | 266° |
| 2026-05-06 18:14 | 48.05911 | 13.87743 | 24430 ft | 408 kts | 266° |
| 2026-05-06 18:14 | 48.05912 | 13.83579 | 23960 ft | 406 kts | 266° |
| 2026-05-06 18:14 | 48.05911 | 13.79349 | 23606 ft | 408 kts | 266° |
| 2026-05-06 18:15 | 48.05908 | 13.75124 | 23158 ft | 406 kts | 266° |
| 2026-05-06 18:15 | 48.05903 | 13.70939 | 22605 ft | 400 kts | 266° |
| 2026-05-06 18:15 | 48.05898 | 13.66837 | 21923 ft | 397 kts | 266° |
| 2026-05-06 18:15 | 48.05891 | 13.62699 | 21241 ft | 394 kts | 266° |
| 2026-05-06 18:16 | 48.05883 | 13.58639 | 20590 ft | 390 kts | 266° |
| 2026-05-06 18:16 | 48.05903 | 13.54599 | 19919 ft | 388 kts | 269° |
| 2026-05-06 18:16 | 48.05976 | 13.52511 | 19572 ft | 388 kts | 270° |
| 2026-05-06 18:16 | 48.06054 | 13.50936 | 19325 ft | 386 kts | 271° |
| 2026-05-06 18:17 | 48.06114 | 13.49772 | 19136 ft | 385 kts | 271° |
| 2026-05-06 18:17 | 48.06329 | 13.45781 | 18489 ft | 381 kts | 271° |
| 2026-05-06 18:17 | 48.06539 | 13.41901 | 17920 ft | 375 kts | 271° |
| 2026-05-06 18:17 | 48.06746 | 13.38092 | 17531 ft | 366 kts | 271° |
| 2026-05-06 18:18 | 48.06949 | 13.34297 | 16997 ft | 361 kts | 271° |
| 2026-05-06 18:18 | 48.07145 | 13.30550 | 16403 ft | 358 kts | 271° |
| 2026-05-06 18:18 | 48.07332 | 13.26990 | 15868 ft | 355 kts | 271° |
| 2026-05-06 18:18 | 48.07523 | 13.23317 | 15616 ft | 353 kts | 271° |
| 2026-05-06 18:19 | 48.07717 | 13.19698 | 15290 ft | 350 kts | 270° |
| 2026-05-06 18:19 | 48.07902 | 13.16169 | 14973 ft | 352 kts | 270° |
| 2026-05-06 18:19 | 48.08087 | 13.12514 | 14647 ft | 352 kts | 270° |
| 2026-05-06 18:19 | 48.08276 | 13.08787 | 14313 ft | 350 kts | 270° |
| 2026-05-06 18:20 | 48.08458 | 13.05171 | 13988 ft | 349 kts | 269° |
| 2026-05-06 18:20 | 48.08639 | 13.01542 | 13661 ft | 347 kts | 269° |
| 2026-05-06 18:20 | 48.08815 | 12.97952 | 13335 ft | 347 kts | 270° |
| 2026-05-06 18:20 | 48.08992 | 12.94363 | 13009 ft | 345 kts | 270° |
| 2026-05-06 18:21 | 48.09207 | 12.90845 | 12803 ft | 333 kts | 272° |
| 2026-05-06 18:21 | 48.09304 | 12.89731 | 12701 ft | 332 kts | 273° |
| 2026-05-06 18:21 | 48.09439 | 12.88265 | 12550 ft | 328 kts | 274° |
| 2026-05-06 18:21 | 48.09756 | 12.84949 | 12176 ft | 314 kts | 274° |
| 2026-05-06 18:22 | 48.10060 | 12.81788 | 11801 ft | 303 kts | 274° |
| 2026-05-06 18:22 | 48.10352 | 12.78709 | 11423 ft | 299 kts | 274° |
| 2026-05-06 18:22 | 48.10642 | 12.75620 | 11045 ft | 298 kts | 275° |
| 2026-05-06 18:22 | 48.11230 | 12.72670 | 10654 ft | 305 kts | 296° |
| 2026-05-06 18:23 | 48.12481 | 12.70087 | 10289 ft | 308 kts | 306° |
| 2026-05-06 18:23 | 48.13873 | 12.67651 | 10002 ft | 307 kts | 307° |
| 2026-05-06 18:23 | 48.15244 | 12.65253 | 9765 ft | 306 kts | 306° |
| 2026-05-06 18:23 | 48.16615 | 12.62792 | 9517 ft | 303 kts | 305° |
| 2026-05-06 18:24 | 48.17930 | 12.60371 | 9146 ft | 296 kts | 304° |
| 2026-05-06 18:24 | 48.19190 | 12.58014 | 8778 ft | 291 kts | 304° |
| 2026-05-06 18:24 | 48.20439 | 12.55649 | 8362 ft | 287 kts | 303° |
| 2026-05-06 18:24 | 48.21655 | 12.53332 | 8066 ft | 281 kts | 303° |
| 2026-05-06 18:25 | 48.22847 | 12.51051 | 7819 ft | 278 kts | 303° |
| 2026-05-06 18:25 | 48.24036 | 12.48771 | 7562 ft | 276 kts | 303° |
| 2026-05-06 18:25 | 48.25203 | 12.46530 | 7314 ft | 272 kts | 303° |
| 2026-05-06 18:25 | 48.26360 | 12.44306 | 7065 ft | 269 kts | 303° |
| 2026-05-06 18:26 | 48.27377 | 12.42004 | 6811 ft | 261 kts | 292° |
| 2026-05-06 18:26 | 48.28070 | 12.39502 | 6563 ft | 257 kts | 288° |
| 2026-05-06 18:26 | 48.28693 | 12.37002 | 6313 ft | 253 kts | 288° |
| 2026-05-06 18:26 | 48.29311 | 12.34562 | 6062 ft | 245 kts | 288° |
| 2026-05-06 18:27 | 48.29927 | 12.32188 | 5811 ft | 242 kts | 289° |
| 2026-05-06 18:27 | 48.30541 | 12.29859 | 5563 ft | 241 kts | 289° |
| 2026-05-06 18:27 | 48.31160 | 12.27542 | 5314 ft | 240 kts | 290° |
| 2026-05-06 18:27 | 48.31783 | 12.25225 | 5064 ft | 239 kts | 290° |
| 2026-05-06 18:28 | 48.32414 | 12.22888 | 4809 ft | 239 kts | 290° |
| 2026-05-06 18:28 | 48.33039 | 12.20577 | 4560 ft | 239 kts | 290° |
| 2026-05-06 18:28 | 48.33665 | 12.18266 | 4310 ft | 239 kts | 290° |
| 2026-05-06 18:28 | 48.34288 | 12.15958 | 4071 ft | 239 kts | 290° |
| 2026-05-06 18:29 | 48.34911 | 12.13655 | 4004 ft | 239 kts | 290° |
| 2026-05-06 18:29 | 48.35528 | 12.11365 | 3999 ft | 234 kts | 290° |
| 2026-05-06 18:29 | 48.36097 | 12.09154 | 3992 ft | 216 kts | 284° |
| 2026-05-06 18:29 | 48.36322 | 12.07053 | 3991 ft | 190 kts | 272° |
| 2026-05-06 18:30 | 48.36306 | 12.05189 | 3977 ft | 172 kts | 268° |
| 2026-05-06 18:30 | 48.36236 | 12.03400 | 3988 ft | 169 kts | 266° |
| 2026-05-06 18:30 | 48.36136 | 12.01671 | 4052 ft | 165 kts | 265° |
| 2026-05-06 18:30 | 48.36015 | 11.99962 | 4035 ft | 165 kts | 265° |
| 2026-05-06 18:31 | 48.35882 | 11.98233 | 3849 ft | 164 kts | 264° |
| 2026-05-06 18:31 | 48.35748 | 11.96547 | 3617 ft | 164 kts | 264° |
| 2026-05-06 18:31 | 48.35614 | 11.94882 | 3375 ft | 153 kts | 264° |
| 2026-05-06 18:31 | 48.35493 | 11.93393 | 3148 ft | 135 kts | 264° |
| 2026-05-06 18:32 | 48.35385 | 11.92033 | 2970 ft | 130 kts | 264° |
| 2026-05-06 18:32 | 48.35281 | 11.90693 | 2831 ft | 129 kts | 265° |
| 2026-05-06 18:32 | 48.35186 | 11.89329 | 2728 ft | 130 kts | 264° |
| 2026-05-06 18:32 | 48.35062 | 11.87996 | 2495 ft | 130 kts | 262° |
| 2026-05-06 18:33 | 48.34949 | 11.86653 | 2303 ft | 130 kts | 263° |
| 2026-05-06 18:33 | 48.34850 | 11.85304 | 2155 ft | 130 kts | 264° |
| 2026-05-06 18:33 | 48.34745 | 11.83953 | 1964 ft | 130 kts | 263° |
| 2026-05-06 18:33 | 48.34639 | 11.82596 | 1761 ft | 129 kts | 264° |
| 2026-05-06 18:34 | 48.34539 | 11.81251 | 1605 ft | 130 kts | 263° |
| 2026-05-06 18:34 | 48.34436 | 11.79900 | 1484 ft | 125 kts | 263° |
| 2026-05-06 18:34 | 48.34347 | 11.78770 | 1479 ft | 87 kts | 263° |
| 2026-05-06 18:34 | 48.34316 | 11.78102 | 1481 ft | 55 kts | 276° |
| 2026-05-06 18:35 | 48.34407 | 11.77673 | 1482 ft | 27 kts | 294° |
| 2026-05-06 18:35 | 48.34441 | 11.77558 | 1483 ft | 2 kts | 294° |
| 2026-05-06 18:35 | 48.34445 | 11.77543 | 1483 ft | 0 kts | 294° |
| 2026-05-06 18:35 | 48.34448 | 11.77536 | 1483 ft | 3 kts | 295° |
| 2026-05-06 18:36 | 48.34497 | 11.77458 | 1483 ft | 13 kts | 329° |
| 2026-05-06 18:36 | 48.34593 | 11.77428 | 1483 ft | 14 kts | 1° |
| 2026-05-06 18:36 | 48.34630 | 11.77483 | 1482 ft | 7 kts | 81° |
| 2026-05-06 18:36 | 48.34638 | 11.77594 | 1482 ft | 13 kts | 83° |
| 2026-05-06 18:37 | 48.34655 | 11.77810 | 1481 ft | 28 kts | 83° |
| 2026-05-06 18:37 | 48.34679 | 11.78119 | 1481 ft | 29 kts | 83° |
| 2026-05-06 18:37 | 48.34701 | 11.78416 | 1480 ft | 28 kts | 84° |
| 2026-05-06 18:37 | 48.34724 | 11.78701 | 1479 ft | 27 kts | 84° |
| 2026-05-06 18:38 | 48.34746 | 11.78980 | 1478 ft | 26 kts | 83° |
| 2026-05-06 18:38 | 48.34766 | 11.79240 | 1477 ft | 24 kts | 84° |
| 2026-05-06 18:38 | 48.34783 | 11.79469 | 1476 ft | 15 kts | 83° |
| 2026-05-06 18:38 | 48.34819 | 11.79561 | 1475 ft | 9 kts | 6° |
| 2026-05-06 18:39 | 48.34880 | 11.79553 | 1475 ft | 7 kts | 353° |
| 2026-05-06 18:39 | 48.34929 | 11.79544 | 1475 ft | 7 kts | 352° |
| 2026-05-06 18:39 | 48.34979 | 11.79566 | 1475 ft | 8 kts | 28° |
| 2026-05-06 18:40 | 48.35167 | 11.79569 | 1474 ft | 22 kts | 354° |
| 2026-05-06 18:40 | 48.35324 | 11.79545 | 1473 ft | 22 kts | 353° |
| 2026-05-06 18:40 | 48.35460 | 11.79521 | 1473 ft | 15 kts | 354° |
| 2026-05-06 18:40 | 48.35535 | 11.79509 | 1472 ft | 7 kts | 354° |
| 2026-05-06 18:41 | 48.35588 | 11.79498 | 1472 ft | 8 kts | 353° |
| 2026-05-06 18:41 | 48.35643 | 11.79535 | 1471 ft | 11 kts | 69° |
| 2026-05-06 18:41 | 48.35650 | 11.79620 | 1471 ft | 9 kts | 84° |
| 2026-05-06 18:41 | 48.35656 | 11.79702 | 1470 ft | 3 kts | 83° |
| 2026-05-06 18:42 | 48.35657 | 11.79716 | 1470 ft | 0 kts | 83° |